sensor_id;sensor_type;location;lat;lon;timestamp;pressure;altitude;pressure_sealevel;temperature;humidity
37078;BME280;22989;55.998;37.212;2023-06-24T00:00:36;116983.66;;;-145.39;62.62
37078;BME280;22989;55.998;37.212;2023-06-24T00:03:02;116983.66;;;-145.39;62.54
37078;BME280;22989;55.998;37.212;2023-06-24T00:05:28;116983.66;;;-145.39;62.43
37078;BME280;22989;55.998;37.212;2023-06-24T00:07:53;116983.66;;;-145.39;62.46
37078;BME280;22989;55.998;37.212;2023-06-24T00:10:22;116983.66;;;-145.39;62.33
37078;BME280;22989;55.998;37.212;2023-06-24T00:12:47;116983.66;;;-145.39;62.14
37078;BME280;22989;55.998;37.212;2023-06-24T00:15:13;116983.66;;;-145.39;62.10
37078;BME280;22989;55.998;37.212;2023-06-24T00:17:39;116983.66;;;-145.39;62.09
37078;BME280;22989;55.998;37.212;2023-06-24T00:20:05;116983.66;;;-145.39;62.22
37078;BME280;22989;55.998;37.212;2023-06-24T00:22:34;116983.66;;;-145.39;62.11
37078;BME280;22989;55.998;37.212;2023-06-24T00:24:59;116983.66;;;-145.39;61.99
37078;BME280;22989;55.998;37.212;2023-06-24T00:27:25;116983.66;;;-145.39;61.97
37078;BME280;22989;55.998;37.212;2023-06-24T00:29:52;116983.66;;;-145.39;61.87
37078;BME280;22989;55.998;37.212;2023-06-24T00:32:17;116983.66;;;-145.39;61.89
37078;BME280;22989;55.998;37.212;2023-06-24T00:34:43;116983.66;;;-145.39;61.89
37078;BME280;22989;55.998;37.212;2023-06-24T00:37:09;116983.66;;;-145.39;61.88
37078;BME280;22989;55.998;37.212;2023-06-24T00:39:34;116983.66;;;-145.39;61.84
37078;BME280;22989;55.998;37.212;2023-06-24T00:42:00;116983.66;;;-145.39;61.71
37078;BME280;22989;55.998;37.212;2023-06-24T00:44:25;116983.66;;;-145.39;61.79
37078;BME280;22989;55.998;37.212;2023-06-24T00:46:50;116983.66;;;-145.39;61.85
37078;BME280;22989;55.998;37.212;2023-06-24T00:49:16;116983.66;;;-145.39;61.79
37078;BME280;22989;55.998;37.212;2023-06-24T00:51:41;116983.66;;;-145.39;61.78
37078;BME280;22989;55.998;37.212;2023-06-24T00:54:18;116983.66;;;-145.39;61.52
37078;BME280;22989;55.998;37.212;2023-06-24T00:56:43;116983.66;;;-145.39;61.68
37078;BME280;22989;55.998;37.212;2023-06-24T00:59:10;116983.66;;;-145.39;61.66
37078;BME280;22989;55.998;37.212;2023-06-24T01:01:37;116983.66;;;-145.39;61.37
37078;BME280;22989;55.998;37.212;2023-06-24T01:04:04;116983.66;;;-145.39;61.39
37078;BME280;22989;55.998;37.212;2023-06-24T01:06:30;116983.66;;;-145.39;61.27
37078;BME280;22989;55.998;37.212;2023-06-24T01:08:59;116983.66;;;-145.39;61.18
37078;BME280;22989;55.998;37.212;2023-06-24T01:11:27;116983.66;;;-145.39;61.03
37078;BME280;22989;55.998;37.212;2023-06-24T01:13:53;116983.66;;;-145.39;60.88
37078;BME280;22989;55.998;37.212;2023-06-24T01:19:04;116983.66;;;-145.39;60.75
37078;BME280;22989;55.998;37.212;2023-06-24T01:21:48;116983.66;;;-145.39;60.74
37078;BME280;22989;55.998;37.212;2023-06-24T01:24:31;116983.66;;;-145.39;60.63
37078;BME280;22989;55.998;37.212;2023-06-24T01:27:12;116983.66;;;-145.39;60.57
37078;BME280;22989;55.998;37.212;2023-06-24T01:35:00;116983.66;;;-145.39;60.28
37078;BME280;22989;55.998;37.212;2023-06-24T01:40:26;116983.66;;;-145.39;60.06
37078;BME280;22989;55.998;37.212;2023-06-24T01:42:52;116983.66;;;-145.39;60.07
37078;BME280;22989;55.998;37.212;2023-06-24T01:45:21;116983.66;;;-145.39;60.07
37078;BME280;22989;55.998;37.212;2023-06-24T01:47:48;116983.66;;;-145.39;59.84
37078;BME280;22989;55.998;37.212;2023-06-24T01:50:14;116983.66;;;-145.39;59.81
37078;BME280;22989;55.998;37.212;2023-06-24T01:52:43;116983.66;;;-145.39;59.74
37078;BME280;22989;55.998;37.212;2023-06-24T01:55:10;116983.66;;;-145.39;59.72
37078;BME280;22989;55.998;37.212;2023-06-24T01:57:36;116983.66;;;-145.39;59.68
37078;BME280;22989;55.998;37.212;2023-06-24T02:00:02;116983.66;;;-145.39;59.75
37078;BME280;22989;55.998;37.212;2023-06-24T02:02:47;116983.66;;;-145.39;59.71
37078;BME280;22989;55.998;37.212;2023-06-24T02:05:13;116983.66;;;-145.39;59.68
37078;BME280;22989;55.998;37.212;2023-06-24T02:07:39;116983.66;;;-145.39;59.72
37078;BME280;22989;55.998;37.212;2023-06-24T02:10:07;116983.66;;;-145.39;59.62
37078;BME280;22989;55.998;37.212;2023-06-24T02:12:34;116983.66;;;-145.39;59.52
37078;BME280;22989;55.998;37.212;2023-06-24T02:15:00;116983.66;;;-145.39;59.52
37078;BME280;22989;55.998;37.212;2023-06-24T02:17:26;116983.66;;;-145.39;59.28
37078;BME280;22989;55.998;37.212;2023-06-24T02:19:54;116983.66;;;-145.39;59.38
37078;BME280;22989;55.998;37.212;2023-06-24T02:22:20;116983.66;;;-145.39;59.29
37078;BME280;22989;55.998;37.212;2023-06-24T02:24:46;116983.66;;;-145.39;59.18
37078;BME280;22989;55.998;37.212;2023-06-24T02:27:13;116983.66;;;-145.39;59.13
37078;BME280;22989;55.998;37.212;2023-06-24T02:29:39;116983.66;;;-145.39;59.11
37078;BME280;22989;55.998;37.212;2023-06-24T02:32:05;116983.66;;;-145.39;58.98
37078;BME280;22989;55.998;37.212;2023-06-24T02:34:31;116983.66;;;-145.39;58.86
37078;BME280;22989;55.998;37.212;2023-06-24T02:36:59;116983.66;;;-145.39;58.86
37078;BME280;22989;55.998;37.212;2023-06-24T02:39:24;116983.66;;;-145.39;58.93
37078;BME280;22989;55.998;37.212;2023-06-24T02:41:50;116983.66;;;-145.39;58.73
37078;BME280;22989;55.998;37.212;2023-06-24T02:44:16;116983.66;;;-145.39;58.82
37078;BME280;22989;55.998;37.212;2023-06-24T02:46:42;116983.66;;;-145.39;58.71
37078;BME280;22989;55.998;37.212;2023-06-24T02:49:08;116983.66;;;-145.39;58.72
37078;BME280;22989;55.998;37.212;2023-06-24T02:51:35;116983.66;;;-145.39;58.54
37078;BME280;22989;55.998;37.212;2023-06-24T02:54:01;116983.66;;;-145.39;58.41
37078;BME280;22989;55.998;37.212;2023-06-24T02:56:53;116983.66;;;-145.39;58.48
37078;BME280;22989;55.998;37.212;2023-06-24T02:59:30;116983.66;;;-145.39;58.56
37078;BME280;22989;55.998;37.212;2023-06-24T03:01:58;116983.66;;;-145.39;58.46
37078;BME280;22989;55.998;37.212;2023-06-24T03:04:24;116983.66;;;-145.39;58.44
37078;BME280;22989;55.998;37.212;2023-06-24T03:06:51;116983.66;;;-145.39;58.36
37078;BME280;22989;55.998;37.212;2023-06-24T03:09:18;116983.66;;;-145.39;58.26
37078;BME280;22989;55.998;37.212;2023-06-24T03:11:44;116983.66;;;-145.39;58.04
37078;BME280;22989;55.998;37.212;2023-06-24T03:14:13;116983.66;;;-145.39;57.97
37078;BME280;22989;55.998;37.212;2023-06-24T03:16:41;116983.66;;;-145.39;57.90
37078;BME280;22989;55.998;37.212;2023-06-24T03:19:13;116983.66;;;-145.39;57.87
37078;BME280;22989;55.998;37.212;2023-06-24T03:21:40;116983.66;;;-145.39;57.69
37078;BME280;22989;55.998;37.212;2023-06-24T03:24:09;116983.66;;;-145.39;57.84
37078;BME280;22989;55.998;37.212;2023-06-24T03:26:39;116983.66;;;-145.39;57.63
37078;BME280;22989;55.998;37.212;2023-06-24T03:29:11;116983.66;;;-145.39;57.58
37078;BME280;22989;55.998;37.212;2023-06-24T03:31:41;116983.66;;;-145.39;57.46
37078;BME280;22989;55.998;37.212;2023-06-24T03:34:10;116983.66;;;-145.39;57.37
37078;BME280;22989;55.998;37.212;2023-06-24T03:36:36;116983.66;;;-145.39;57.23
37078;BME280;22989;55.998;37.212;2023-06-24T03:39:05;116983.66;;;-145.39;57.06
37078;BME280;22989;55.998;37.212;2023-06-24T03:41:31;116983.66;;;-145.39;57.13
37078;BME280;22989;55.998;37.212;2023-06-24T03:43:57;116983.66;;;-145.39;57.16
37078;BME280;22989;55.998;37.212;2023-06-24T03:46:23;116983.66;;;-145.39;57.02
37078;BME280;22989;55.998;37.212;2023-06-24T03:48:49;116983.66;;;-145.39;56.89
37078;BME280;22989;55.998;37.212;2023-06-24T03:51:15;116983.66;;;-145.39;56.85
37078;BME280;22989;55.998;37.212;2023-06-24T03:53:41;116983.66;;;-145.39;56.88
37078;BME280;22989;55.998;37.212;2023-06-24T03:56:07;116983.66;;;-145.39;56.97
37078;BME280;22989;55.998;37.212;2023-06-24T03:58:32;116983.66;;;-145.39;56.91
37078;BME280;22989;55.998;37.212;2023-06-24T04:00:59;116983.66;;;-145.39;56.73
37078;BME280;22989;55.998;37.212;2023-06-24T04:03:25;116983.66;;;-145.39;56.49
37078;BME280;22989;55.998;37.212;2023-06-24T04:05:56;116983.66;;;-145.39;56.22
37078;BME280;22989;55.998;37.212;2023-06-24T04:08:22;116983.66;;;-145.39;55.99
37078;BME280;22989;55.998;37.212;2023-06-24T04:10:49;116983.66;;;-145.39;55.81
37078;BME280;22989;55.998;37.212;2023-06-24T04:13:14;116983.66;;;-145.39;55.61
37078;BME280;22989;55.998;37.212;2023-06-24T04:15:39;116983.66;;;-145.39;55.44
37078;BME280;22989;55.998;37.212;2023-06-24T04:18:05;116983.66;;;-145.39;55.37
37078;BME280;22989;55.998;37.212;2023-06-24T04:20:32;116983.66;;;-145.39;55.51
37078;BME280;22989;55.998;37.212;2023-06-24T04:22:58;116983.66;;;-145.39;55.29
37078;BME280;22989;55.998;37.212;2023-06-24T04:25:26;116983.66;;;-145.39;55.27
37078;BME280;22989;55.998;37.212;2023-06-24T04:27:52;116983.66;;;-145.39;55.35
37078;BME280;22989;55.998;37.212;2023-06-24T04:30:17;116983.66;;;-145.39;55.25
37078;BME280;22989;55.998;37.212;2023-06-24T04:32:43;116983.66;;;-145.39;55.32
37078;BME280;22989;55.998;37.212;2023-06-24T04:35:09;116983.66;;;-145.39;55.37
37078;BME280;22989;55.998;37.212;2023-06-24T04:37:36;116983.66;;;-145.39;55.36
37078;BME280;22989;55.998;37.212;2023-06-24T04:40:01;116983.66;;;-145.39;55.35
37078;BME280;22989;55.998;37.212;2023-06-24T04:42:27;116983.66;;;-145.39;55.43
37078;BME280;22989;55.998;37.212;2023-06-24T04:44:53;116983.66;;;-145.39;55.51
37078;BME280;22989;55.998;37.212;2023-06-24T04:47:18;116983.66;;;-145.39;55.51
37078;BME280;22989;55.998;37.212;2023-06-24T04:49:44;116983.66;;;-145.39;55.38
37078;BME280;22989;55.998;37.212;2023-06-24T04:52:10;116983.66;;;-145.39;55.36
37078;BME280;22989;55.998;37.212;2023-06-24T04:54:36;116983.66;;;-145.39;55.42
37078;BME280;22989;55.998;37.212;2023-06-24T04:57:01;116983.66;;;-145.39;55.30
37078;BME280;22989;55.998;37.212;2023-06-24T04:59:26;116983.66;;;-145.39;55.42
37078;BME280;22989;55.998;37.212;2023-06-24T05:01:52;116983.66;;;-145.39;55.25
37078;BME280;22989;55.998;37.212;2023-06-24T05:04:17;116983.66;;;-145.39;55.07
37078;BME280;22989;55.998;37.212;2023-06-24T05:06:43;116983.66;;;-145.39;55.17
37078;BME280;22989;55.998;37.212;2023-06-24T05:09:09;116983.66;;;-145.39;55.11
37078;BME280;22989;55.998;37.212;2023-06-24T05:11:38;116983.66;;;-145.39;55.11
37078;BME280;22989;55.998;37.212;2023-06-24T05:14:03;116983.66;;;-145.39;55.07
37078;BME280;22989;55.998;37.212;2023-06-24T05:16:29;116983.66;;;-145.39;55.15
37078;BME280;22989;55.998;37.212;2023-06-24T05:18:54;116983.66;;;-145.39;54.95
37078;BME280;22989;55.998;37.212;2023-06-24T05:21:20;116983.66;;;-145.39;55.24
37078;BME280;22989;55.998;37.212;2023-06-24T05:23:45;116983.66;;;-145.39;55.30
37078;BME280;22989;55.998;37.212;2023-06-24T05:26:10;116983.66;;;-145.39;55.28
37078;BME280;22989;55.998;37.212;2023-06-24T05:28:36;116983.66;;;-145.39;55.00
37078;BME280;22989;55.998;37.212;2023-06-24T05:31:02;116983.66;;;-145.39;54.73
37078;BME280;22989;55.998;37.212;2023-06-24T05:33:27;116983.66;;;-145.39;54.09
37078;BME280;22989;55.998;37.212;2023-06-24T05:35:53;116983.66;;;-145.39;53.46
37078;BME280;22989;55.998;37.212;2023-06-24T05:38:18;116983.66;;;-145.39;52.89
37078;BME280;22989;55.998;37.212;2023-06-24T05:40:43;116983.66;;;-145.39;52.65
37078;BME280;22989;55.998;37.212;2023-06-24T05:43:09;116983.66;;;-145.39;52.40
37078;BME280;22989;55.998;37.212;2023-06-24T05:45:35;116983.66;;;-145.39;52.19
37078;BME280;22989;55.998;37.212;2023-06-24T05:48:02;116983.66;;;-145.39;52.32
37078;BME280;22989;55.998;37.212;2023-06-24T05:50:27;116983.66;;;-145.39;52.38
37078;BME280;22989;55.998;37.212;2023-06-24T05:52:53;116983.66;;;-145.39;52.55
37078;BME280;22989;55.998;37.212;2023-06-24T05:55:18;116983.66;;;-145.39;52.68
37078;BME280;22989;55.998;37.212;2023-06-24T05:57:44;116983.66;;;-145.39;52.87
37078;BME280;22989;55.998;37.212;2023-06-24T06:00:09;116983.66;;;-145.39;52.84
37078;BME280;22989;55.998;37.212;2023-06-24T06:02:40;116983.66;;;-145.39;52.87
37078;BME280;22989;55.998;37.212;2023-06-24T06:05:06;116983.66;;;-145.39;52.77
37078;BME280;22989;55.998;37.212;2023-06-24T06:07:31;116983.66;;;-145.39;52.79
37078;BME280;22989;55.998;37.212;2023-06-24T06:09:57;116983.66;;;-145.39;52.71
37078;BME280;22989;55.998;37.212;2023-06-24T06:12:22;116983.66;;;-145.39;52.44
37078;BME280;22989;55.998;37.212;2023-06-24T06:14:48;116983.66;;;-145.39;52.34
37078;BME280;22989;55.998;37.212;2023-06-24T06:17:13;116983.66;;;-145.39;52.41
37078;BME280;22989;55.998;37.212;2023-06-24T06:19:39;116983.66;;;-145.39;52.45
37078;BME280;22989;55.998;37.212;2023-06-24T06:22:06;116983.66;;;-145.39;52.54
37078;BME280;22989;55.998;37.212;2023-06-24T06:24:32;116983.66;;;-145.39;52.57
37078;BME280;22989;55.998;37.212;2023-06-24T06:26:57;116983.66;;;-145.39;52.26
37078;BME280;22989;55.998;37.212;2023-06-24T06:29:23;116983.66;;;-145.39;52.55
37078;BME280;22989;55.998;37.212;2023-06-24T06:31:49;116983.66;;;-145.39;52.73
37078;BME280;22989;55.998;37.212;2023-06-24T06:34:14;116983.66;;;-145.39;52.81
37078;BME280;22989;55.998;37.212;2023-06-24T06:36:40;116983.66;;;-145.39;52.69
37078;BME280;22989;55.998;37.212;2023-06-24T06:39:05;116983.66;;;-145.39;52.60
37078;BME280;22989;55.998;37.212;2023-06-24T06:41:31;116983.66;;;-145.39;52.74
37078;BME280;22989;55.998;37.212;2023-06-24T06:43:56;116983.66;;;-145.39;52.61
37078;BME280;22989;55.998;37.212;2023-06-24T06:46:22;116983.66;;;-145.39;52.45
37078;BME280;22989;55.998;37.212;2023-06-24T06:48:47;116983.66;;;-145.39;52.37
37078;BME280;22989;55.998;37.212;2023-06-24T06:51:13;116983.66;;;-145.39;52.47
37078;BME280;22989;55.998;37.212;2023-06-24T06:53:38;116983.66;;;-145.39;52.49
37078;BME280;22989;55.998;37.212;2023-06-24T06:56:04;116983.66;;;-145.39;52.66
37078;BME280;22989;55.998;37.212;2023-06-24T06:58:29;116983.66;;;-145.39;52.63
37078;BME280;22989;55.998;37.212;2023-06-24T07:00:55;116983.66;;;-145.39;52.71
37078;BME280;22989;55.998;37.212;2023-06-24T07:03:20;116983.66;;;-145.39;52.58
37078;BME280;22989;55.998;37.212;2023-06-24T07:05:46;116983.66;;;-145.39;52.42
37078;BME280;22989;55.998;37.212;2023-06-24T07:08:12;116983.66;;;-145.39;52.25
37078;BME280;22989;55.998;37.212;2023-06-24T07:10:37;116983.66;;;-145.39;52.17
37078;BME280;22989;55.998;37.212;2023-06-24T07:13:03;116983.66;;;-145.39;52.03
37078;BME280;22989;55.998;37.212;2023-06-24T07:15:28;116983.66;;;-145.39;51.93
37078;BME280;22989;55.998;37.212;2023-06-24T07:17:54;116983.66;;;-145.39;51.85
37078;BME280;22989;55.998;37.212;2023-06-24T07:20:20;116983.66;;;-145.39;51.93
37078;BME280;22989;55.998;37.212;2023-06-24T07:22:45;116983.66;;;-145.39;51.80
37078;BME280;22989;55.998;37.212;2023-06-24T07:25:11;116983.66;;;-145.39;51.61
37078;BME280;22989;55.998;37.212;2023-06-24T07:27:36;116983.66;;;-145.39;51.71
37078;BME280;22989;55.998;37.212;2023-06-24T07:30:02;116983.66;;;-145.39;51.71
37078;BME280;22989;55.998;37.212;2023-06-24T07:32:27;116983.66;;;-145.39;51.82
37078;BME280;22989;55.998;37.212;2023-06-24T07:34:53;116983.66;;;-145.39;51.90
37078;BME280;22989;55.998;37.212;2023-06-24T07:37:18;116983.66;;;-145.39;52.08
37078;BME280;22989;55.998;37.212;2023-06-24T07:39:43;116983.66;;;-145.39;52.20
37078;BME280;22989;55.998;37.212;2023-06-24T07:42:09;116983.66;;;-145.39;52.38
37078;BME280;22989;55.998;37.212;2023-06-24T07:44:34;116983.66;;;-145.39;52.55
37078;BME280;22989;55.998;37.212;2023-06-24T07:47:02;116983.66;;;-145.39;52.69
37078;BME280;22989;55.998;37.212;2023-06-24T07:49:27;116983.66;;;-145.39;52.86
37078;BME280;22989;55.998;37.212;2023-06-24T07:51:53;116983.66;;;-145.39;53.03
37078;BME280;22989;55.998;37.212;2023-06-24T07:54:18;116983.66;;;-145.39;53.17
37078;BME280;22989;55.998;37.212;2023-06-24T07:56:44;116983.66;;;-145.39;53.27
37078;BME280;22989;55.998;37.212;2023-06-24T07:59:09;116983.66;;;-145.39;53.32
37078;BME280;22989;55.998;37.212;2023-06-24T08:01:34;116983.66;;;-145.39;53.51
37078;BME280;22989;55.998;37.212;2023-06-24T08:04:00;116983.66;;;-145.39;53.45
37078;BME280;22989;55.998;37.212;2023-06-24T08:06:25;116983.66;;;-145.39;53.42
37078;BME280;22989;55.998;37.212;2023-06-24T08:08:52;116983.66;;;-145.39;53.59
37078;BME280;22989;55.998;37.212;2023-06-24T08:11:17;116983.66;;;-145.39;53.44
37078;BME280;22989;55.998;37.212;2023-06-24T08:13:43;116983.66;;;-145.39;53.60
37078;BME280;22989;55.998;37.212;2023-06-24T08:16:08;116983.66;;;-145.39;53.31
37078;BME280;22989;55.998;37.212;2023-06-24T08:18:34;116983.66;;;-145.39;52.78
37078;BME280;22989;55.998;37.212;2023-06-24T08:20:59;116983.66;;;-145.39;52.58
37078;BME280;22989;55.998;37.212;2023-06-24T08:23:24;116983.66;;;-145.39;52.29
37078;BME280;22989;55.998;37.212;2023-06-24T08:25:50;116983.66;;;-145.39;52.46
37078;BME280;22989;55.998;37.212;2023-06-24T08:28:15;116983.66;;;-145.39;52.45
37078;BME280;22989;55.998;37.212;2023-06-24T08:30:41;116983.66;;;-145.39;52.28
37078;BME280;22989;55.998;37.212;2023-06-24T08:33:06;116983.66;;;-145.39;52.25
37078;BME280;22989;55.998;37.212;2023-06-24T08:35:32;116983.66;;;-145.39;52.07
37078;BME280;22989;55.998;37.212;2023-06-24T08:37:57;116983.66;;;-145.39;52.16
37078;BME280;22989;55.998;37.212;2023-06-24T08:40:22;116983.66;;;-145.39;52.17
37078;BME280;22989;55.998;37.212;2023-06-24T08:42:48;116983.66;;;-145.39;52.08
37078;BME280;22989;55.998;37.212;2023-06-24T08:45:13;116983.66;;;-145.39;51.89
37078;BME280;22989;55.998;37.212;2023-06-24T08:47:39;116983.66;;;-145.39;52.17
37078;BME280;22989;55.998;37.212;2023-06-24T08:50:08;116983.66;;;-145.39;52.32
37078;BME280;22989;55.998;37.212;2023-06-24T08:52:36;116983.66;;;-145.39;52.17
37078;BME280;22989;55.998;37.212;2023-06-24T08:55:04;116983.66;;;-145.39;52.46
37078;BME280;22989;55.998;37.212;2023-06-24T08:57:31;116983.66;;;-145.39;52.50
37078;BME280;22989;55.998;37.212;2023-06-24T08:59:57;116983.66;;;-145.39;52.86
37078;BME280;22989;55.998;37.212;2023-06-24T09:02:22;116983.66;;;-145.39;52.83
37078;BME280;22989;55.998;37.212;2023-06-24T09:04:49;116983.66;;;-145.39;52.88
37078;BME280;22989;55.998;37.212;2023-06-24T09:07:23;116983.66;;;-145.39;53.13
37078;BME280;22989;55.998;37.212;2023-06-24T09:09:48;116983.66;;;-145.39;52.96
37078;BME280;22989;55.998;37.212;2023-06-24T09:12:14;116983.66;;;-145.39;53.13
37078;BME280;22989;55.998;37.212;2023-06-24T09:14:40;116983.66;;;-145.39;53.26
37078;BME280;22989;55.998;37.212;2023-06-24T09:17:06;116983.66;;;-145.39;53.25
37078;BME280;22989;55.998;37.212;2023-06-24T09:19:31;116983.66;;;-145.39;53.31
37078;BME280;22989;55.998;37.212;2023-06-24T09:22:01;116983.66;;;-145.39;53.25
37078;BME280;22989;55.998;37.212;2023-06-24T09:24:27;116983.66;;;-145.39;53.49
37078;BME280;22989;55.998;37.212;2023-06-24T09:26:55;116983.66;;;-145.39;53.77
37078;BME280;22989;55.998;37.212;2023-06-24T09:29:22;116983.66;;;-145.39;53.99
37078;BME280;22989;55.998;37.212;2023-06-24T09:31:50;116983.66;;;-145.39;53.98
37078;BME280;22989;55.998;37.212;2023-06-24T09:34:18;116983.66;;;-145.39;54.23
37078;BME280;22989;55.998;37.212;2023-06-24T09:36:43;116983.66;;;-145.39;54.17
37078;BME280;22989;55.998;37.212;2023-06-24T09:39:10;116983.66;;;-145.39;54.34
37078;BME280;22989;55.998;37.212;2023-06-24T09:41:35;116983.66;;;-145.39;54.14
37078;BME280;22989;55.998;37.212;2023-06-24T09:44:01;116983.66;;;-145.39;53.91
37078;BME280;22989;55.998;37.212;2023-06-24T09:46:29;116983.66;;;-145.39;53.79
37078;BME280;22989;55.998;37.212;2023-06-24T09:48:55;116983.66;;;-145.39;53.66
37078;BME280;22989;55.998;37.212;2023-06-24T09:51:21;116983.66;;;-145.39;53.52
37078;BME280;22989;55.998;37.212;2023-06-24T09:53:48;116983.66;;;-145.39;53.29
37078;BME280;22989;55.998;37.212;2023-06-24T09:56:14;116983.66;;;-145.39;53.17
37078;BME280;22989;55.998;37.212;2023-06-24T09:58:40;116983.66;;;-145.39;52.62
37078;BME280;22989;55.998;37.212;2023-06-24T10:01:07;116983.66;;;-145.39;52.07
37078;BME280;22989;55.998;37.212;2023-06-24T10:03:34;116983.66;;;-145.39;51.76
37078;BME280;22989;55.998;37.212;2023-06-24T10:06:01;116983.66;;;-145.39;51.66
37078;BME280;22989;55.998;37.212;2023-06-24T10:08:27;116983.66;;;-145.39;51.73
37078;BME280;22989;55.998;37.212;2023-06-24T10:10:52;116983.66;;;-145.39;52.21
37078;BME280;22989;55.998;37.212;2023-06-24T10:13:18;116983.66;;;-145.39;52.79
37078;BME280;22989;55.998;37.212;2023-06-24T10:15:44;116983.66;;;-145.39;53.03
37078;BME280;22989;55.998;37.212;2023-06-24T10:20:54;116983.66;;;-145.39;52.97
37078;BME280;22989;55.998;37.212;2023-06-24T10:23:19;116983.66;;;-145.39;53.29
37078;BME280;22989;55.998;37.212;2023-06-24T10:25:46;116983.66;;;-145.39;53.39
37078;BME280;22989;55.998;37.212;2023-06-24T10:28:12;116983.66;;;-145.39;53.65
37078;BME280;22989;55.998;37.212;2023-06-24T10:30:37;116983.66;;;-145.39;54.22
37078;BME280;22989;55.998;37.212;2023-06-24T10:33:02;116983.66;;;-145.39;54.39
37078;BME280;22989;55.998;37.212;2023-06-24T10:35:28;116983.66;;;-145.39;54.19
37078;BME280;22989;55.998;37.212;2023-06-24T10:37:58;116983.66;;;-145.39;54.08
37078;BME280;22989;55.998;37.212;2023-06-24T10:43:04;116983.66;;;-145.39;53.92
37078;BME280;22989;55.998;37.212;2023-06-24T10:45:43;116983.66;;;-145.39;53.90
37078;BME280;22989;55.998;37.212;2023-06-24T10:48:13;116983.66;;;-145.39;54.08
37078;BME280;22989;55.998;37.212;2023-06-24T10:50:39;116983.66;;;-145.39;54.15
37078;BME280;22989;55.998;37.212;2023-06-24T10:53:07;116983.66;;;-145.39;54.31
37078;BME280;22989;55.998;37.212;2023-06-24T10:55:33;116983.66;;;-145.39;54.35
37078;BME280;22989;55.998;37.212;2023-06-24T10:58:10;116983.66;;;-145.39;54.39
37078;BME280;22989;55.998;37.212;2023-06-24T11:00:37;116983.66;;;-145.39;54.25
37078;BME280;22989;55.998;37.212;2023-06-24T11:03:13;116983.66;;;-145.39;54.20
37078;BME280;22989;55.998;37.212;2023-06-24T11:05:39;116983.66;;;-145.39;54.11
37078;BME280;22989;55.998;37.212;2023-06-24T11:08:05;116983.66;;;-145.39;53.73
37078;BME280;22989;55.998;37.212;2023-06-24T11:10:31;116983.66;;;-145.39;53.24
37078;BME280;22989;55.998;37.212;2023-06-24T11:12:56;116983.66;;;-145.39;53.22
37078;BME280;22989;55.998;37.212;2023-06-24T11:15:24;116983.66;;;-145.39;53.10
37078;BME280;22989;55.998;37.212;2023-06-24T11:17:50;116983.66;;;-145.39;53.13
37078;BME280;22989;55.998;37.212;2023-06-24T11:20:16;116983.66;;;-145.39;53.61
37078;BME280;22989;55.998;37.212;2023-06-24T11:22:41;116983.66;;;-145.39;53.90
37078;BME280;22989;55.998;37.212;2023-06-24T11:25:17;116983.66;;;-145.39;54.09
37078;BME280;22989;55.998;37.212;2023-06-24T11:27:43;116983.66;;;-145.39;53.72
37078;BME280;22989;55.998;37.212;2023-06-24T11:30:08;116983.66;;;-145.39;53.40
37078;BME280;22989;55.998;37.212;2023-06-24T11:32:41;116983.66;;;-145.39;51.90
37078;BME280;22989;55.998;37.212;2023-06-24T11:35:10;116983.66;;;-145.39;50.88
37078;BME280;22989;55.998;37.212;2023-06-24T11:37:36;116983.66;;;-145.39;50.63
37078;BME280;22989;55.998;37.212;2023-06-24T11:42:30;116983.66;;;-145.39;50.75
37078;BME280;22989;55.998;37.212;2023-06-24T11:45:02;116983.66;;;-145.39;49.84
37078;BME280;22989;55.998;37.212;2023-06-24T11:47:30;116983.66;;;-145.39;49.24
37078;BME280;22989;55.998;37.212;2023-06-24T11:49:56;116983.66;;;-145.39;49.72
37078;BME280;22989;55.998;37.212;2023-06-24T11:52:32;116983.66;;;-145.39;49.77
37078;BME280;22989;55.998;37.212;2023-06-24T11:54:59;116983.66;;;-145.39;49.30
37078;BME280;22989;55.998;37.212;2023-06-24T12:00:12;116983.66;;;-145.39;49.60
37078;BME280;22989;55.998;37.212;2023-06-24T12:02:38;116983.66;;;-145.39;50.02
37078;BME280;22989;55.998;37.212;2023-06-24T12:05:03;116983.66;;;-145.39;50.04
37078;BME280;22989;55.998;37.212;2023-06-24T12:07:29;116983.66;;;-145.39;49.65
37078;BME280;22989;55.998;37.212;2023-06-24T12:09:54;116983.66;;;-145.39;49.82
37078;BME280;22989;55.998;37.212;2023-06-24T12:12:20;116983.66;;;-145.39;49.66
37078;BME280;22989;55.998;37.212;2023-06-24T12:14:45;116983.66;;;-145.39;49.43
37078;BME280;22989;55.998;37.212;2023-06-24T12:17:11;116983.66;;;-145.39;49.69
37078;BME280;22989;55.998;37.212;2023-06-24T12:19:37;116983.66;;;-145.39;49.81
37078;BME280;22989;55.998;37.212;2023-06-24T12:22:02;116983.66;;;-145.39;49.89
37078;BME280;22989;55.998;37.212;2023-06-24T12:24:28;116983.66;;;-145.39;50.08
37078;BME280;22989;55.998;37.212;2023-06-24T12:26:53;116983.66;;;-145.39;50.66
37078;BME280;22989;55.998;37.212;2023-06-24T12:29:19;116983.66;;;-145.39;50.93
37078;BME280;22989;55.998;37.212;2023-06-24T12:31:44;116983.66;;;-145.39;51.07
37078;BME280;22989;55.998;37.212;2023-06-24T12:34:10;116983.66;;;-145.39;51.18
37078;BME280;22989;55.998;37.212;2023-06-24T12:36:35;116983.66;;;-145.39;51.17
37078;BME280;22989;55.998;37.212;2023-06-24T12:39:01;116983.66;;;-145.39;51.28